sensor_id;sensor_type;location;lat;lon;timestamp;P1;durP1;ratioP1;P2;durP2;ratioP2
39208;SDS011;24929;51.982;4.664;2023-05-14T00:02:11;17.42;;;13.98;;
39208;SDS011;24929;51.982;4.664;2023-05-14T00:04:37;20.27;;;13.00;;
39208;SDS011;24929;51.982;4.664;2023-05-14T00:07:02;15.90;;;13.55;;
39208;SDS011;24929;51.982;4.664;2023-05-14T00:09:28;20.00;;;12.45;;
39208;SDS011;24929;51.982;4.664;2023-05-14T00:11:54;15.73;;;13.10;;
39208;SDS011;24929;51.982;4.664;2023-05-14T00:14:20;16.25;;;12.88;;
39208;SDS011;24929;51.982;4.664;2023-05-14T00:16:45;15.00;;;13.05;;
39208;SDS011;24929;51.982;4.664;2023-05-14T00:19:10;21.75;;;12.95;;
39208;SDS011;24929;51.982;4.664;2023-05-14T00:21:36;15.70;;;12.27;;
39208;SDS011;24929;51.982;4.664;2023-05-14T00:24:01;15.63;;;12.38;;
39208;SDS011;24929;51.982;4.664;2023-05-14T00:26:27;17.15;;;12.55;;
39208;SDS011;24929;51.982;4.664;2023-05-14T00:28:52;15.43;;;12.18;;
39208;SDS011;24929;51.982;4.664;2023-05-14T00:31:17;19.13;;;13.48;;
39208;SDS011;24929;51.982;4.664;2023-05-14T00:33:43;16.33;;;13.07;;
39208;SDS011;24929;51.982;4.664;2023-05-14T00:36:08;27.30;;;12.82;;
39208;SDS011;24929;51.982;4.664;2023-05-14T00:38:33;16.42;;;13.55;;
39208;SDS011;24929;51.982;4.664;2023-05-14T00:40:59;17.42;;;11.60;;
39208;SDS011;24929;51.982;4.664;2023-05-14T00:43:24;16.77;;;12.73;;
39208;SDS011;24929;51.982;4.664;2023-05-14T00:45:50;15.38;;;13.40;;
39208;SDS011;24929;51.982;4.664;2023-05-14T00:48:17;16.17;;;12.80;;
39208;SDS011;24929;51.982;4.664;2023-05-14T00:50:43;15.07;;;13.48;;
39208;SDS011;24929;51.982;4.664;2023-05-14T00:53:09;16.70;;;13.15;;
39208;SDS011;24929;51.982;4.664;2023-05-14T00:55:36;15.60;;;13.10;;
39208;SDS011;24929;51.982;4.664;2023-05-14T00:58:03;15.90;;;13.13;;
39208;SDS011;24929;51.982;4.664;2023-05-14T01:00:33;14.95;;;13.23;;
39208;SDS011;24929;51.982;4.664;2023-05-14T01:02:59;14.90;;;12.60;;
39208;SDS011;24929;51.982;4.664;2023-05-14T01:05:26;12.73;;;11.27;;
39208;SDS011;24929;51.982;4.664;2023-05-14T01:10:50;18.45;;;12.55;;
39208;SDS011;24929;51.982;4.664;2023-05-14T01:15:55;14.15;;;11.07;;
39208;SDS011;24929;51.982;4.664;2023-05-14T01:18:23;13.60;;;11.73;;
39208;SDS011;24929;51.982;4.664;2023-05-14T01:20:50;16.33;;;11.93;;
39208;SDS011;24929;51.982;4.664;2023-05-14T01:23:16;20.95;;;14.52;;
39208;SDS011;24929;51.982;4.664;2023-05-14T01:25:41;15.18;;;12.43;;
39208;SDS011;24929;51.982;4.664;2023-05-14T01:33:17;15.23;;;13.63;;
39208;SDS011;24929;51.982;4.664;2023-05-14T01:35:45;16.17;;;14.57;;
39208;SDS011;24929;51.982;4.664;2023-05-14T01:38:12;15.00;;;13.25;;
39208;SDS011;24929;51.982;4.664;2023-05-14T01:40:41;15.75;;;13.90;;
39208;SDS011;24929;51.982;4.664;2023-05-14T01:43:09;14.90;;;13.23;;
39208;SDS011;24929;51.982;4.664;2023-05-14T01:45:35;17.85;;;14.13;;
39208;SDS011;24929;51.982;4.664;2023-05-14T01:48:02;17.73;;;14.38;;
39208;SDS011;24929;51.982;4.664;2023-05-14T01:50:29;23.05;;;13.88;;
39208;SDS011;24929;51.982;4.664;2023-05-14T01:52:54;20.83;;;14.27;;
39208;SDS011;24929;51.982;4.664;2023-05-14T01:55:20;14.77;;;13.18;;
39208;SDS011;24929;51.982;4.664;2023-05-14T01:57:48;15.32;;;13.65;;
39208;SDS011;24929;51.982;4.664;2023-05-14T02:00:14;15.30;;;13.60;;
39208;SDS011;24929;51.982;4.664;2023-05-14T02:02:39;17.80;;;13.70;;
39208;SDS011;24929;51.982;4.664;2023-05-14T02:05:05;17.17;;;14.23;;
39208;SDS011;24929;51.982;4.664;2023-05-14T02:07:31;19.45;;;13.88;;
39208;SDS011;24929;51.982;4.664;2023-05-14T02:09:56;18.48;;;14.93;;
39208;SDS011;24929;51.982;4.664;2023-05-14T02:12:21;19.42;;;14.20;;
39208;SDS011;24929;51.982;4.664;2023-05-14T02:14:47;20.83;;;14.30;;
39208;SDS011;24929;51.982;4.664;2023-05-14T02:17:12;20.67;;;14.73;;
39208;SDS011;24929;51.982;4.664;2023-05-14T02:19:40;15.27;;;13.52;;
39208;SDS011;24929;51.982;4.664;2023-05-14T02:22:05;19.67;;;14.60;;
39208;SDS011;24929;51.982;4.664;2023-05-14T02:24:31;17.40;;;14.45;;
39208;SDS011;24929;51.982;4.664;2023-05-14T02:26:56;15.13;;;13.50;;
39208;SDS011;24929;51.982;4.664;2023-05-14T02:29:24;17.00;;;13.88;;
39208;SDS011;24929;51.982;4.664;2023-05-14T02:31:49;16.50;;;13.88;;
39208;SDS011;24929;51.982;4.664;2023-05-14T02:34:14;20.33;;;14.80;;
39208;SDS011;24929;51.982;4.664;2023-05-14T02:36:40;21.52;;;14.85;;
39208;SDS011;24929;51.982;4.664;2023-05-14T02:39:05;18.02;;;14.57;;
39208;SDS011;24929;51.982;4.664;2023-05-14T02:41:31;18.80;;;14.15;;
39208;SDS011;24929;51.982;4.664;2023-05-14T02:43:56;16.25;;;14.30;;
39208;SDS011;24929;51.982;4.664;2023-05-14T02:46:21;20.00;;;13.70;;
39208;SDS011;24929;51.982;4.664;2023-05-14T02:48:47;21.90;;;14.30;;
39208;SDS011;24929;51.982;4.664;2023-05-14T02:51:12;19.33;;;14.15;;
39208;SDS011;24929;51.982;4.664;2023-05-14T02:53:37;17.05;;;14.27;;
39208;SDS011;24929;51.982;4.664;2023-05-14T02:56:03;15.38;;;13.75;;
39208;SDS011;24929;51.982;4.664;2023-05-14T02:58:28;15.05;;;13.15;;
39208;SDS011;24929;51.982;4.664;2023-05-14T03:00:54;20.30;;;14.02;;
39208;SDS011;24929;51.982;4.664;2023-05-14T03:03:19;18.48;;;13.30;;
39208;SDS011;24929;51.982;4.664;2023-05-14T03:05:45;15.18;;;13.50;;
39208;SDS011;24929;51.982;4.664;2023-05-14T03:08:10;19.08;;;13.93;;
39208;SDS011;24929;51.982;4.664;2023-05-14T03:10:35;20.83;;;13.63;;
39208;SDS011;24929;51.982;4.664;2023-05-14T03:13:01;17.77;;;13.07;;
39208;SDS011;24929;51.982;4.664;2023-05-14T03:15:26;15.60;;;11.93;;
39208;SDS011;24929;51.982;4.664;2023-05-14T03:17:52;15.20;;;13.60;;
39208;SDS011;24929;51.982;4.664;2023-05-14T03:20:17;16.10;;;13.15;;
39208;SDS011;24929;51.982;4.664;2023-05-14T03:22:42;15.43;;;12.65;;
39208;SDS011;24929;51.982;4.664;2023-05-14T03:25:08;16.63;;;13.35;;
39208;SDS011;24929;51.982;4.664;2023-05-14T03:27:33;17.33;;;13.18;;
39208;SDS011;24929;51.982;4.664;2023-05-14T03:30:02;14.02;;;12.55;;
39208;SDS011;24929;51.982;4.664;2023-05-14T03:32:27;19.13;;;13.73;;
39208;SDS011;24929;51.982;4.664;2023-05-14T03:34:53;18.27;;;12.85;;
39208;SDS011;24929;51.982;4.664;2023-05-14T03:37:19;16.23;;;13.50;;
39208;SDS011;24929;51.982;4.664;2023-05-14T03:39:44;18.08;;;14.23;;
39208;SDS011;24929;51.982;4.664;2023-05-14T03:42:09;15.02;;;12.75;;
39208;SDS011;24929;51.982;4.664;2023-05-14T03:44:35;17.13;;;13.23;;
39208;SDS011;24929;51.982;4.664;2023-05-14T03:47:00;19.98;;;12.95;;
39208;SDS011;24929;51.982;4.664;2023-05-14T03:49:25;15.45;;;12.35;;
39208;SDS011;24929;51.982;4.664;2023-05-14T03:51:51;14.57;;;12.77;;
39208;SDS011;24929;51.982;4.664;2023-05-14T03:54:16;16.33;;;12.30;;
39208;SDS011;24929;51.982;4.664;2023-05-14T03:56:41;15.25;;;12.88;;
39208;SDS011;24929;51.982;4.664;2023-05-14T03:59:07;16.40;;;13.25;;
39208;SDS011;24929;51.982;4.664;2023-05-14T04:01:32;20.85;;;13.50;;
39208;SDS011;24929;51.982;4.664;2023-05-14T04:03:57;14.90;;;13.18;;
39208;SDS011;24929;51.982;4.664;2023-05-14T04:06:23;22.52;;;13.50;;
39208;SDS011;24929;51.982;4.664;2023-05-14T04:08:48;18.27;;;13.32;;
39208;SDS011;24929;51.982;4.664;2023-05-14T04:11:13;16.45;;;13.50;;
39208;SDS011;24929;51.982;4.664;2023-05-14T04:13:39;20.02;;;13.52;;
39208;SDS011;24929;51.982;4.664;2023-05-14T04:16:04;15.30;;;11.77;;
39208;SDS011;24929;51.982;4.664;2023-05-14T04:18:30;15.02;;;13.40;;
39208;SDS011;24929;51.982;4.664;2023-05-14T04:20:58;20.00;;;15.13;;
39208;SDS011;24929;51.982;4.664;2023-05-14T04:23:24;17.20;;;14.13;;
39208;SDS011;24929;51.982;4.664;2023-05-14T04:25:49;16.92;;;13.70;;
39208;SDS011;24929;51.982;4.664;2023-05-14T04:28:14;17.65;;;13.95;;
39208;SDS011;24929;51.982;4.664;2023-05-14T04:30:40;16.80;;;14.45;;
39208;SDS011;24929;51.982;4.664;2023-05-14T04:33:05;18.10;;;14.82;;
39208;SDS011;24929;51.982;4.664;2023-05-14T04:35:31;18.95;;;15.05;;
39208;SDS011;24929;51.982;4.664;2023-05-14T04:37:56;16.23;;;13.80;;
39208;SDS011;24929;51.982;4.664;2023-05-14T04:40:21;23.30;;;14.38;;
39208;SDS011;24929;51.982;4.664;2023-05-14T04:42:47;19.75;;;13.60;;
39208;SDS011;24929;51.982;4.664;2023-05-14T04:45:12;17.80;;;14.57;;
39208;SDS011;24929;51.982;4.664;2023-05-14T04:47:38;21.52;;;14.35;;
39208;SDS011;24929;51.982;4.664;2023-05-14T04:50:04;15.82;;;13.73;;
39208;SDS011;24929;51.982;4.664;2023-05-14T04:52:32;18.42;;;13.93;;
39208;SDS011;24929;51.982;4.664;2023-05-14T04:54:57;21.33;;;13.57;;
39208;SDS011;24929;51.982;4.664;2023-05-14T04:57:22;17.45;;;14.18;;
39208;SDS011;24929;51.982;4.664;2023-05-14T04:59:48;14.85;;;12.50;;
39208;SDS011;24929;51.982;4.664;2023-05-14T05:02:13;16.63;;;12.57;;
39208;SDS011;24929;51.982;4.664;2023-05-14T05:04:38;15.38;;;12.90;;
39208;SDS011;24929;51.982;4.664;2023-05-14T05:07:04;18.60;;;13.88;;
39208;SDS011;24929;51.982;4.664;2023-05-14T05:09:30;19.20;;;14.23;;
39208;SDS011;24929;51.982;4.664;2023-05-14T05:11:55;19.25;;;13.40;;
39208;SDS011;24929;51.982;4.664;2023-05-14T05:14:21;20.63;;;13.98;;
39208;SDS011;24929;51.982;4.664;2023-05-14T05:16:46;16.20;;;14.50;;
39208;SDS011;24929;51.982;4.664;2023-05-14T05:19:12;23.38;;;14.50;;
39208;SDS011;24929;51.982;4.664;2023-05-14T05:21:37;22.33;;;15.35;;
39208;SDS011;24929;51.982;4.664;2023-05-14T05:24:04;18.33;;;13.82;;
39208;SDS011;24929;51.982;4.664;2023-05-14T05:26:31;21.92;;;14.63;;
39208;SDS011;24929;51.982;4.664;2023-05-14T05:28:56;19.23;;;13.60;;
39208;SDS011;24929;51.982;4.664;2023-05-14T05:31:21;17.77;;;13.98;;
39208;SDS011;24929;51.982;4.664;2023-05-14T05:33:47;22.88;;;14.77;;
39208;SDS011;24929;51.982;4.664;2023-05-14T05:36:12;18.40;;;13.00;;
39208;SDS011;24929;51.982;4.664;2023-05-14T05:38:37;15.75;;;11.57;;
39208;SDS011;24929;51.982;4.664;2023-05-14T05:41:03;18.13;;;13.35;;
39208;SDS011;24929;51.982;4.664;2023-05-14T05:43:28;19.10;;;13.18;;
39208;SDS011;24929;51.982;4.664;2023-05-14T05:45:53;16.70;;;13.30;;
39208;SDS011;24929;51.982;4.664;2023-05-14T05:48:19;15.95;;;13.30;;
39208;SDS011;24929;51.982;4.664;2023-05-14T05:50:45;17.80;;;13.38;;
39208;SDS011;24929;51.982;4.664;2023-05-14T05:53:12;18.55;;;14.02;;
39208;SDS011;24929;51.982;4.664;2023-05-14T05:55:39;25.38;;;16.17;;
39208;SDS011;24929;51.982;4.664;2023-05-14T05:58:04;21.38;;;15.55;;
39208;SDS011;24929;51.982;4.664;2023-05-14T06:00:30;19.45;;;15.63;;
39208;SDS011;24929;51.982;4.664;2023-05-14T06:02:56;26.35;;;18.10;;
39208;SDS011;24929;51.982;4.664;2023-05-14T06:05:21;23.45;;;16.75;;
39208;SDS011;24929;51.982;4.664;2023-05-14T06:07:46;26.02;;;18.25;;
39208;SDS011;24929;51.982;4.664;2023-05-14T06:10:12;24.25;;;18.13;;
39208;SDS011;24929;51.982;4.664;2023-05-14T06:12:37;22.58;;;16.88;;
39208;SDS011;24929;51.982;4.664;2023-05-14T06:15:02;22.33;;;17.25;;
39208;SDS011;24929;51.982;4.664;2023-05-14T06:17:28;25.55;;;17.65;;
39208;SDS011;24929;51.982;4.664;2023-05-14T06:19:53;24.98;;;18.23;;
39208;SDS011;24929;51.982;4.664;2023-05-14T06:22:19;25.00;;;18.88;;
39208;SDS011;24929;51.982;4.664;2023-05-14T06:24:44;22.48;;;17.00;;
39208;SDS011;24929;51.982;4.664;2023-05-14T06:27:10;22.73;;;17.85;;
39208;SDS011;24929;51.982;4.664;2023-05-14T06:29:35;25.42;;;18.80;;
39208;SDS011;24929;51.982;4.664;2023-05-14T06:32:02;21.92;;;18.67;;
39208;SDS011;24929;51.982;4.664;2023-05-14T06:34:28;28.08;;;18.15;;
39208;SDS011;24929;51.982;4.664;2023-05-14T06:36:54;22.30;;;18.35;;
39208;SDS011;24929;51.982;4.664;2023-05-14T06:39:19;27.92;;;20.20;;
39208;SDS011;24929;51.982;4.664;2023-05-14T06:41:44;29.17;;;19.63;;
39208;SDS011;24929;51.982;4.664;2023-05-14T06:44:10;27.63;;;19.20;;
39208;SDS011;24929;51.982;4.664;2023-05-14T06:46:35;24.65;;;18.40;;
39208;SDS011;24929;51.982;4.664;2023-05-14T06:49:01;24.25;;;18.98;;
39208;SDS011;24929;51.982;4.664;2023-05-14T06:51:26;24.08;;;17.70;;
39208;SDS011;24929;51.982;4.664;2023-05-14T06:53:52;27.58;;;21.17;;
39208;SDS011;24929;51.982;4.664;2023-05-14T06:56:18;27.10;;;18.73;;
39208;SDS011;24929;51.982;4.664;2023-05-14T06:58:43;22.85;;;18.17;;
39208;SDS011;24929;51.982;4.664;2023-05-14T07:01:08;25.98;;;18.42;;
39208;SDS011;24929;51.982;4.664;2023-05-14T07:03:34;23.92;;;18.45;;
39208;SDS011;24929;51.982;4.664;2023-05-14T07:06:00;22.63;;;17.27;;
39208;SDS011;24929;51.982;4.664;2023-05-14T07:08:25;32.20;;;20.40;;
39208;SDS011;24929;51.982;4.664;2023-05-14T07:10:50;24.80;;;17.92;;
39208;SDS011;24929;51.982;4.664;2023-05-14T07:13:16;22.13;;;16.90;;
39208;SDS011;24929;51.982;4.664;2023-05-14T07:15:41;28.90;;;17.88;;
39208;SDS011;24929;51.982;4.664;2023-05-14T07:18:06;24.75;;;19.52;;
39208;SDS011;24929;51.982;4.664;2023-05-14T07:20:32;23.30;;;17.73;;
39208;SDS011;24929;51.982;4.664;2023-05-14T07:22:57;23.10;;;17.52;;
39208;SDS011;24929;51.982;4.664;2023-05-14T07:25:23;24.60;;;17.27;;
39208;SDS011;24929;51.982;4.664;2023-05-14T07:27:48;23.63;;;16.25;;
39208;SDS011;24929;51.982;4.664;2023-05-14T07:30:13;23.88;;;15.85;;
39208;SDS011;24929;51.982;4.664;2023-05-14T07:32:39;21.83;;;16.08;;
39208;SDS011;24929;51.982;4.664;2023-05-14T07:35:04;20.17;;;16.25;;
39208;SDS011;24929;51.982;4.664;2023-05-14T07:37:30;18.63;;;14.90;;
39208;SDS011;24929;51.982;4.664;2023-05-14T07:39:56;21.67;;;16.90;;
39208;SDS011;24929;51.982;4.664;2023-05-14T07:42:21;21.42;;;14.90;;
39208;SDS011;24929;51.982;4.664;2023-05-14T07:44:47;22.02;;;15.23;;
39208;SDS011;24929;51.982;4.664;2023-05-14T07:47:12;24.38;;;17.17;;
39208;SDS011;24929;51.982;4.664;2023-05-14T07:49:37;25.50;;;15.75;;
39208;SDS011;24929;51.982;4.664;2023-05-14T07:52:03;23.35;;;14.90;;
39208;SDS011;24929;51.982;4.664;2023-05-14T07:54:28;23.17;;;14.73;;
39208;SDS011;24929;51.982;4.664;2023-05-14T07:56:54;16.98;;;14.73;;
39208;SDS011;24929;51.982;4.664;2023-05-14T07:59:19;18.88;;;14.68;;
39208;SDS011;24929;51.982;4.664;2023-05-14T08:01:44;17.73;;;14.10;;
39208;SDS011;24929;51.982;4.664;2023-05-14T08:04:09;30.15;;;17.40;;
39208;SDS011;24929;51.982;4.664;2023-05-14T08:06:40;24.35;;;15.27;;
39208;SDS011;24929;51.982;4.664;2023-05-14T08:09:06;23.08;;;12.52;;
39208;SDS011;24929;51.982;4.664;2023-05-14T08:11:32;17.35;;;13.40;;
39208;SDS011;24929;51.982;4.664;2023-05-14T08:13:58;16.45;;;12.23;;
39208;SDS011;24929;51.982;4.664;2023-05-14T08:16:23;14.95;;;11.25;;
39208;SDS011;24929;51.982;4.664;2023-05-14T08:18:50;19.95;;;12.95;;
39208;SDS011;24929;51.982;4.664;2023-05-14T08:21:15;15.05;;;10.73;;
39208;SDS011;24929;51.982;4.664;2023-05-14T08:23:41;15.43;;;10.63;;
39208;SDS011;24929;51.982;4.664;2023-05-14T08:26:06;11.25;;;10.07;;
39208;SDS011;24929;51.982;4.664;2023-05-14T08:28:32;11.77;;;9.00;;
39208;SDS011;24929;51.982;4.664;2023-05-14T08:30:58;14.13;;;11.70;;
39208;SDS011;24929;51.982;4.664;2023-05-14T08:33:23;10.68;;;9.13;;
39208;SDS011;24929;51.982;4.664;2023-05-14T08:35:49;11.30;;;9.23;;
39208;SDS011;24929;51.982;4.664;2023-05-14T08:38:16;13.65;;;9.88;;
39208;SDS011;24929;51.982;4.664;2023-05-14T08:40:45;11.25;;;9.93;;
39208;SDS011;24929;51.982;4.664;2023-05-14T08:43:12;20.48;;;11.80;;
39208;SDS011;24929;51.982;4.664;2023-05-14T08:45:43;9.52;;;8.57;;
39208;SDS011;24929;51.982;4.664;2023-05-14T08:48:08;13.25;;;10.82;;
39208;SDS011;24929;51.982;4.664;2023-05-14T08:50:39;19.10;;;9.85;;
39208;SDS011;24929;51.982;4.664;2023-05-14T08:53:05;14.43;;;9.57;;
39208;SDS011;24929;51.982;4.664;2023-05-14T08:55:30;13.48;;;10.43;;
39208;SDS011;24929;51.982;4.664;2023-05-14T08:57:58;14.68;;;9.80;;
39208;SDS011;24929;51.982;4.664;2023-05-14T09:00:23;11.43;;;10.23;;
39208;SDS011;24929;51.982;4.664;2023-05-14T09:02:50;13.90;;;8.93;;
39208;SDS011;24929;51.982;4.664;2023-05-14T09:05:16;9.00;;;8.10;;
39208;SDS011;24929;51.982;4.664;2023-05-14T09:07:43;14.50;;;9.93;;
39208;SDS011;24929;51.982;4.664;2023-05-14T09:10:09;14.70;;;10.25;;
39208;SDS011;24929;51.982;4.664;2023-05-14T09:12:35;11.90;;;8.70;;
39208;SDS011;24929;51.982;4.664;2023-05-14T09:15:00;8.82;;;7.97;;
39208;SDS011;24929;51.982;4.664;2023-05-14T09:17:26;14.00;;;8.75;;
39208;SDS011;24929;51.982;4.664;2023-05-14T09:19:51;13.85;;;7.50;;
39208;SDS011;24929;51.982;4.664;2023-05-14T09:22:17;13.45;;;8.88;;
39208;SDS011;24929;51.982;4.664;2023-05-14T09:24:44;14.05;;;8.73;;
39208;SDS011;24929;51.982;4.664;2023-05-14T09:27:19;8.30;;;7.43;;
39208;SDS011;24929;51.982;4.664;2023-05-14T09:29:47;7.75;;;6.95;;
39208;SDS011;24929;51.982;4.664;2023-05-14T09:32:12;8.20;;;6.22;;
39208;SDS011;24929;51.982;4.664;2023-05-14T09:34:38;7.47;;;6.10;;
39208;SDS011;24929;51.982;4.664;2023-05-14T09:37:04;8.07;;;5.22;;
39208;SDS011;24929;51.982;4.664;2023-05-14T09:39:32;7.05;;;4.93;;
39208;SDS011;24929;51.982;4.664;2023-05-14T09:41:58;7.40;;;5.47;;
39208;SDS011;24929;51.982;4.664;2023-05-14T09:44:24;8.40;;;5.30;;
39208;SDS011;24929;51.982;4.664;2023-05-14T09:46:50;6.43;;;5.18;;
39208;SDS011;24929;51.982;4.664;2023-05-14T09:49:17;9.15;;;5.85;;
39208;SDS011;24929;51.982;4.664;2023-05-14T09:51:42;10.75;;;5.50;;
39208;SDS011;24929;51.982;4.664;2023-05-14T09:54:08;10.10;;;6.53;;
39208;SDS011;24929;51.982;4.664;2023-05-14T09:56:34;6.15;;;5.60;;
39208;SDS011;24929;51.982;4.664;2023-05-14T09:59:00;5.93;;;5.32;;
39208;SDS011;24929;51.982;4.664;2023-05-14T10:01:27;6.15;;;5.13;;
39208;SDS011;24929;51.982;4.664;2023-05-14T10:03:54;7.43;;;5.22;;
39208;SDS011;24929;51.982;4.664;2023-05-14T10:06:30;9.15;;;5.00;;
39208;SDS011;24929;51.982;4.664;2023-05-14T10:09:01;7.57;;;5.47;;
39208;SDS011;24929;51.982;4.664;2023-05-14T10:11:32;5.53;;;4.97;;
39208;SDS011;24929;51.982;4.664;2023-05-14T10:14:02;10.80;;;6.18;;
39208;SDS011;24929;51.982;4.664;2023-05-14T10:16:30;6.97;;;6.05;;
39208;SDS011;24929;51.982;4.664;2023-05-14T10:19:06;7.38;;;5.63;;
39208;SDS011;24929;51.982;4.664;2023-05-14T10:21:34;7.70;;;5.50;;
39208;SDS011;24929;51.982;4.664;2023-05-14T10:24:01;6.20;;;5.55;;
39208;SDS011;24929;51.982;4.664;2023-05-14T10:26:31;9.95;;;5.57;;
39208;SDS011;24929;51.982;4.664;2023-05-14T10:28:57;7.38;;;5.35;;
39208;SDS011;24929;51.982;4.664;2023-05-14T10:34:30;7.10;;;5.63;;
39208;SDS011;24929;51.982;4.664;2023-05-14T10:37:02;7.82;;;5.50;;
39208;SDS011;24929;51.982;4.664;2023-05-14T10:42:21;11.63;;;6.30;;
39208;SDS011;24929;51.982;4.664;2023-05-14T10:44:59;8.40;;;6.65;;
39208;SDS011;24929;51.982;4.664;2023-05-14T10:47:31;6.95;;;5.80;;
39208;SDS011;24929;51.982;4.664;2023-05-14T10:49:57;8.10;;;6.65;;
39208;SDS011;24929;51.982;4.664;2023-05-14T10:52:24;7.30;;;6.07;;
39208;SDS011;24929;51.982;4.664;2023-05-14T10:54:54;7.32;;;5.65;;
39208;SDS011;24929;51.982;4.664;2023-05-14T10:57:21;6.68;;;5.22;;
39208;SDS011;24929;51.982;4.664;2023-05-14T10:59:48;6.70;;;4.57;;
39208;SDS011;24929;51.982;4.664;2023-05-14T11:02:27;6.40;;;4.47;;
39208;SDS011;24929;51.982;4.664;2023-05-14T11:04:57;5.88;;;5.03;;
39208;SDS011;24929;51.982;4.664;2023-05-14T11:07:28;8.30;;;5.72;;
39208;SDS011;24929;51.982;4.664;2023-05-14T11:09:59;7.28;;;6.40;;
39208;SDS011;24929;51.982;4.664;2023-05-14T11:12:29;5.55;;;4.95;;
39208;SDS011;24929;51.982;4.664;2023-05-14T11:14:55;7.75;;;5.57;;
39208;SDS011;24929;51.982;4.664;2023-05-14T11:17:22;8.65;;;5.43;;
39208;SDS011;24929;51.982;4.664;2023-05-14T11:19:48;8.98;;;4.82;;
39208;SDS011;24929;51.982;4.664;2023-05-14T11:22:14;6.20;;;5.03;;
39208;SDS011;24929;51.982;4.664;2023-05-14T11:24:39;11.23;;;4.90;;
39208;SDS011;24929;51.982;4.664;2023-05-14T11:27:08;9.13;;;5.18;;
39208;SDS011;24929;51.982;4.664;2023-05-14T11:29:35;6.63;;;5.07;;
39208;SDS011;24929;51.982;4.664;2023-05-14T11:32:03;6.38;;;4.47;;
39208;SDS011;24929;51.982;4.664;2023-05-14T11:34:29;6.97;;;5.20;;
39208;SDS011;24929;51.982;4.664;2023-05-14T11:36:55;9.35;;;5.45;;
39208;SDS011;24929;51.982;4.664;2023-05-14T11:39:20;7.57;;;5.47;;
39208;SDS011;24929;51.982;4.664;2023-05-14T11:41:46;5.68;;;5.07;;
39208;SDS011;24929;51.982;4.664;2023-05-14T11:44:11;9.07;;;4.97;;
39208;SDS011;24929;51.982;4.664;2023-05-14T11:46:37;8.32;;;4.85;;
39208;SDS011;24929;51.982;4.664;2023-05-14T11:49:05;6.07;;;4.22;;
39208;SDS011;24929;51.982;4.664;2023-05-14T11:51:31;11.48;;;5.43;;
39208;SDS011;24929;51.982;4.664;2023-05-14T11:53:56;6.43;;;4.90;;
39208;SDS011;24929;51.982;4.664;2023-05-14T11:56:24;10.35;;;6.30;;
39208;SDS011;24929;51.982;4.664;2023-05-14T11:58:56;7.55;;;4.05;;
39208;SDS011;24929;51.982;4.664;2023-05-14T12:01:24;6.45;;;4.45;;
39208;SDS011;24929;51.982;4.664;2023-05-14T12:03:50;6.53;;;5.30;;
39208;SDS011;24929;51.982;4.664;2023-05-14T12:06:15;5.93;;;4.68;;
39208;SDS011;24929;51.982;4.664;2023-05-14T12:08:42;5.35;;;4.18;;
39208;SDS011;24929;51.982;4.664;2023-05-14T12:11:07;6.38;;;5.72;;
39208;SDS011;24929;51.982;4.664;2023-05-14T12:13:33;9.80;;;4.80;;
39208;SDS011;24929;51.982;4.664;2023-05-14T12:15:59;8.18;;;5.25;;
39208;SDS011;24929;51.982;4.664;2023-05-14T12:18:26;9.88;;;5.93;;
39208;SDS011;24929;51.982;4.664;2023-05-14T12:20:53;7.82;;;4.60;;
39208;SDS011;24929;51.982;4.664;2023-05-14T12:23:25;6.15;;;4.75;;
39208;SDS011;24929;51.982;4.664;2023-05-14T12:25:54;5.80;;;4.32;;
39208;SDS011;24929;51.982;4.664;2023-05-14T12:28:21;8.27;;;4.88;;
39208;SDS011;24929;51.982;4.664;2023-05-14T12:30:47;5.72;;;4.55;;
39208;SDS011;24929;51.982;4.664;2023-05-14T12:33:19;6.88;;;4.28;;
39208;SDS011;24929;51.982;4.664;2023-05-14T12:35:47;9.50;;;5.55;;
39208;SDS011;24929;51.982;4.664;2023-05-14T12:38:12;10.55;;;4.72;;
39208;SDS011;24929;51.982;4.664;2023-05-14T12:40:37;7.15;;;4.78;;
39208;SDS011;24929;51.982;4.664;2023-05-14T12:43:03;5.32;;;4.80;;
39208;SDS011;24929;51.982;4.664;2023-05-14T12:45:29;7.03;;;4.63;;
39208;SDS011;24929;51.982;4.664;2023-05-14T12:47:54;7.82;;;4.43;;
39208;SDS011;24929;51.982;4.664;2023-05-14T12:50:19;11.30;;;4.03;;
39208;SDS011;24929;51.982;4.664;2023-05-14T12:52:45;6.25;;;4.80;;
39208;SDS011;24929;51.982;4.664;2023-05-14T12:55:10;5.80;;;4.38;;
39208;SDS011;24929;51.982;4.664;2023-05-14T12:57:36;7.63;;;5.03;;
39208;SDS011;24929;51.982;4.664;2023-05-14T13:00:02;8.57;;;4.13;;
39208;SDS011;24929;51.982;4.664;2023-05-14T13:02:32;5.22;;;4.20;;
39208;SDS011;24929;51.982;4.664;2023-05-14T13:04:57;5.97;;;4.97;;
39208;SDS011;24929;51.982;4.664;2023-05-14T13:07:23;8.38;;;4.82;;
39208;SDS011;24929;51.982;4.664;2023-05-14T13:09:48;6.85;;;4.93;;
39208;SDS011;24929;51.982;4.664;2023-05-14T13:12:13;8.10;;;4.78;;
39208;SDS011;24929;51.982;4.664;2023-05-14T13:14:39;7.07;;;4.93;;
39208;SDS011;24929;51.982;4.664;2023-05-14T13:17:04;5.43;;;4.93;;
39208;SDS011;24929;51.982;4.664;2023-05-14T13:19:31;9.40;;;4.20;;
39208;SDS011;24929;51.982;4.664;2023-05-14T13:21:57;12.15;;;4.57;;
39208;SDS011;24929;51.982;4.664;2023-05-14T13:24:22;6.68;;;4.15;;
39208;SDS011;24929;51.982;4.664;2023-05-14T13:26:48;5.65;;;4.60;;
39208;SDS011;24929;51.982;4.664;2023-05-14T13:29:14;10.15;;;4.63;;
39208;SDS011;24929;51.982;4.664;2023-05-14T13:31:39;7.82;;;5.07;;
39208;SDS011;24929;51.982;4.664;2023-05-14T13:34:05;10.93;;;4.57;;
39208;SDS011;24929;51.982;4.664;2023-05-14T13:36:30;6.28;;;3.92;;
39208;SDS011;24929;51.982;4.664;2023-05-14T13:38:56;4.85;;;4.10;;
39208;SDS011;24929;51.982;4.664;2023-05-14T13:41:21;8.80;;;4.75;;
39208;SDS011;24929;51.982;4.664;2023-05-14T13:43:47;5.45;;;4.68;;
39208;SDS011;24929;51.982;4.664;2023-05-14T13:46:12;12.65;;;5.47;;
39208;SDS011;24929;51.982;4.664;2023-05-14T13:48:37;10.48;;;5.18;;
39208;SDS011;24929;51.982;4.664;2023-05-14T13:51:03;3.53;;;3.22;;
39208;SDS011;24929;51.982;4.664;2023-05-14T13:53:28;9.32;;;4.15;;
39208;SDS011;24929;51.982;4.664;2023-05-14T13:55:54;5.15;;;3.70;;
39208;SDS011;24929;51.982;4.664;2023-05-14T13:58:24;7.78;;;4.35;;
39208;SDS011;24929;51.982;4.664;2023-05-14T14:00:50;7.13;;;5.05;;
39208;SDS011;24929;51.982;4.664;2023-05-14T14:03:19;10.13;;;5.10;;
39208;SDS011;24929;51.982;4.664;2023-05-14T14:05:44;5.88;;;4.57;;
39208;SDS011;24929;51.982;4.664;2023-05-14T14:08:10;6.88;;;4.55;;
39208;SDS011;24929;51.982;4.664;2023-05-14T14:10:35;4.90;;;4.43;;
39208;SDS011;24929;51.982;4.664;2023-05-14T14:13:03;8.40;;;4.68;;
39208;SDS011;24929;51.982;4.664;2023-05-14T14:15:28;6.60;;;4.50;;
39208;SDS011;24929;51.982;4.664;2023-05-14T14:17:54;9.27;;;4.55;;
39208;SDS011;24929;51.982;4.664;2023-05-14T14:20:19;5.63;;;4.50;;
39208;SDS011;24929;51.982;4.664;2023-05-14T14:22:44;7.07;;;4.85;;
39208;SDS011;24929;51.982;4.664;2023-05-14T14:25:10;8.82;;;4.78;;
39208;SDS011;24929;51.982;4.664;2023-05-14T14:27:36;5.57;;;4.65;;
39208;SDS011;24929;51.982;4.664;2023-05-14T14:30:08;7.18;;;4.57;;
39208;SDS011;24929;51.982;4.664;2023-05-14T14:32:43;6.75;;;5.25;;
39208;SDS011;24929;51.982;4.664;2023-05-14T14:35:09;6.00;;;4.47;;
39208;SDS011;24929;51.982;4.664;2023-05-14T14:37:36;8.60;;;3.67;;
39208;SDS011;24929;51.982;4.664;2023-05-14T14:40:02;5.35;;;4.75;;
39208;SDS011;24929;51.982;4.664;2023-05-14T14:42:27;5.63;;;4.28;;